Time;durP1;ratioP1;P1;durP2;ratioP2;P2;SDS_P1;SDS_P2;PMS_P1;PMS_P2;Temp;Humidity;BMP_temperature;BMP_pressure;BME280_temperature;BME280_humidity;BME280_pressure;Samples;Min_cycle;Max_cycle;Signal;HPM_P1;HPM_P2
2024/01/03 00:01:30;;;;;;;0.20;0.20;;;11.40;99.90;;;;;;4890258;29;20044;-63
2024/01/03 00:03:55;;;;;;;0.73;0.25;;;11.50;99.90;;;;;;4874350;29;20040;-64
2024/01/03 00:06:21;;;;;;;0.00;0.00;;;11.50;99.90;;;;;;4888865;29;20382;-64
2024/01/03 00:31:05;;;;;;;0.70;0.40;;;10.70;99.90;;;;;;4875294;29;20041;-63
2024/01/03 00:33:38;;;;;;;0.10;0.10;;;10.60;99.90;;;;;;4876716;29;20065;-63
2024/01/03 00:36:06;;;;;;;0.43;0.10;;;10.50;99.90;;;;;;4876041;29;20032;-62
2024/01/03 00:38:41;;;;;;;0.50;0.22;;;10.50;99.90;;;;;;4871636;29;20028;-64
2024/01/03 00:41:12;;;;;;;0.20;0.10;;;10.40;99.90;;;;;;4875648;29;20450;-63
2024/01/03 00:43:41;;;;;;;0.00;0.00;;;10.40;99.90;;;;;;4874109;29;20029;-64
2024/01/03 01:15:34;;;;;;;0.13;0.13;;;10.00;99.90;;;;;;4876402;29;20032;-62
2024/01/03 01:18:00;;;;;;;2.40;0.65;;;9.90;99.90;;;;;;4870593;29;20034;-62
2024/01/03 01:20:25;;;;;;;12.50;0.40;;;9.90;99.90;;;;;;4873640;29;20437;-65
2024/01/03 01:22:51;;;;;;;0.25;0.25;;;9.90;99.90;;;;;;4873735;29;20037;-62
2024/01/03 01:25:17;;;;;;;0.70;0.20;;;9.90;99.90;;;;;;4891376;29;20029;-63
2024/01/03 01:27:43;;;;;;;1.58;0.38;;;9.90;99.90;;;;;;4874887;29;20032;-63
2024/01/03 01:30:09;;;;;;;2.42;0.63;;;9.80;99.90;;;;;;4874555;29;20025;-63
2024/01/03 01:32:35;;;;;;;0.60;0.30;;;9.90;99.90;;;;;;4872973;29;20041;-63
2024/01/03 01:35:00;;;;;;;0.22;0.20;;;9.80;99.90;;;;;;4872636;29;20031;-63
2024/01/03 01:37:26;;;;;;;0.60;0.30;;;9.90;99.90;;;;;;4873481;29;20037;-63
2024/01/03 01:39:55;;;;;;;2.55;0.17;;;9.90;99.90;;;;;;4872882;29;20040;-63
2024/01/03 01:42:22;;;;;;;2.90;0.30;;;10.00;99.90;;;;;;4871845;29;20033;-63
2024/01/03 01:44:48;;;;;;;0.10;0.10;;;10.00;99.90;;;;;;4872827;29;20086;-63
2024/01/03 01:47:14;;;;;;;1.55;0.15;;;10.10;99.90;;;;;;4872159;29;20037;-63
2024/01/03 01:49:40;;;;;;;2.72;0.50;;;10.10;99.90;;;;;;4874192;29;20069;-63
2024/01/03 01:52:10;;;;;;;3.75;0.35;;;10.20;99.90;;;;;;4876304;29;20098;-63
2024/01/03 01:54:37;;;;;;;1.80;0.28;;;10.20;99.90;;;;;;4872292;29;20464;-65
2024/01/03 01:57:04;;;;;;;1.13;0.30;;;10.30;99.90;;;;;;4872874;29;20414;-62
2024/01/03 01:59:30;;;;;;;0.45;0.40;;;10.30;99.90;;;;;;4874264;29;20033;-62
2024/01/03 02:01:57;;;;;;;2.65;0.38;;;10.30;99.90;;;;;;4876070;29;20036;-62
2024/01/03 02:04:24;;;;;;;4.32;0.43;;;10.20;99.90;;;;;;4880490;29;20041;-62
2024/01/03 02:06:50;;;;;;;1.17;0.40;;;10.20;99.90;;;;;;4869293;29;20434;-62
2024/01/03 02:09:15;;;;;;;1.20;0.98;;;10.10;99.90;;;;;;4868452;29;20032;-64
2024/01/03 02:11:48;;;;;;;0.68;0.30;;;10.10;99.90;;;;;;4869271;29;20481;-62
2024/01/03 02:14:13;;;;;;;0.90;0.38;;;10.10;99.90;;;;;;4867072;29;20021;-61
2024/01/03 02:16:39;;;;;;;2.20;0.65;;;10.00;99.90;;;;;;4866800;29;20039;-62
2024/01/03 02:19:05;;;;;;;4.80;0.28;;;10.00;99.90;;;;;;4865147;29;20060;-62
2024/01/03 02:21:31;;;;;;;0.55;0.40;;;10.00;99.90;;;;;;4889500;29;20029;-62
2024/01/03 02:23:57;;;;;;;5.00;0.30;;;10.10;99.90;;;;;;4874777;29;20029;-62
2024/01/03 02:26:23;;;;;;;6.85;0.55;;;10.20;99.90;;;;;;4869736;29;20508;-62
2024/01/03 02:28:48;;;;;;;6.82;0.45;;;10.10;99.90;;;;;;4870189;29;20061;-63
2024/01/03 02:31:14;;;;;;;0.65;0.32;;;10.20;99.90;;;;;;4874075;29;20044;-63
2024/01/03 02:33:40;;;;;;;1.25;0.40;;;10.20;99.90;;;;;;4871373;29;20040;-63
2024/01/03 02:36:06;;;;;;;4.03;0.40;;;10.10;99.90;;;;;;4874033;29;20041;-63
2024/01/03 02:38:32;;;;;;;14.38;1.10;;;10.00;99.90;;;;;;4878251;29;20036;-63
2024/01/03 02:40:57;;;;;;;4.60;0.88;;;10.00;99.90;;;;;;4876297;29;20045;-63
2024/01/03 02:43:24;;;;;;;2.92;0.55;;;10.00;99.90;;;;;;4871973;29;20120;-63
2024/01/03 02:45:49;;;;;;;7.13;0.60;;;9.90;99.90;;;;;;4872382;29;20037;-63
2024/01/03 02:48:15;;;;;;;0.82;0.32;;;10.00;99.90;;;;;;4871666;29;20021;-63
2024/01/03 02:50:44;;;;;;;2.38;0.82;;;10.00;99.90;;;;;;4874845;29;20512;-64
2024/01/03 02:53:10;;;;;;;4.30;0.82;;;9.90;99.90;;;;;;4877164;29;20033;-64
2024/01/03 02:55:36;;;;;;;2.28;0.80;;;9.90;99.90;;;;;;4893148;29;20116;-62
2024/01/03 02:58:02;;;;;;;5.32;0.68;;;10.00;99.90;;;;;;4878607;29;20100;-65
2024/01/03 03:00:28;;;;;;;3.85;0.88;;;10.00;99.90;;;;;;4873381;29;20044;-65
2024/01/03 03:02:53;;;;;;;6.15;0.98;;;10.00;99.90;;;;;;4869267;29;20494;-64
2024/01/03 03:05:19;;;;;;;0.68;0.38;;;9.90;99.90;;;;;;4876993;29;20051;-64
2024/01/03 03:07:45;;;;;;;1.10;0.50;;;9.80;99.90;;;;;;4870260;29;20032;-64
2024/01/03 03:10:14;;;;;;;2.15;0.77;;;9.80;99.90;;;;;;4888710;29;20501;-64
2024/01/03 03:12:40;;;;;;;4.20;1.08;;;9.70;99.90;;;;;;4878762;29;20359;-64
2024/01/03 03:15:07;;;;;;;0.68;0.43;;;9.70;99.90;;;;;;4875005;29;20144;-64
2024/01/03 03:17:32;;;;;;;0.77;0.40;;;9.60;99.90;;;;;;4876499;29;20041;-64
2024/01/03 03:19:58;;;;;;;1.52;0.20;;;9.60;99.90;;;;;;4876142;29;21394;-64
2024/01/03 03:22:24;;;;;;;5.05;0.50;;;9.60;99.90;;;;;;4871020;29;20038;-64
2024/01/03 03:24:50;;;;;;;0.70;0.10;;;9.50;99.90;;;;;;4875494;29;20497;-64
2024/01/03 03:27:15;;;;;;;5.03;0.20;;;9.40;99.90;;;;;;4871126;29;20037;-64
2024/01/03 03:51:46;;;;;;;0.65;0.45;;;9.40;99.90;;;;;;4875400;29;20042;-65
2024/01/03 03:54:12;;;;;;;1.27;0.50;;;9.50;99.90;;;;;;4872442;29;20434;-65
2024/01/03 03:56:37;;;;;;;0.90;0.68;;;9.70;99.90;;;;;;4878410;29;20109;-64
2024/01/03 03:59:04;;;;;;;1.55;0.65;;;9.80;99.90;;;;;;4873192;29;20378;-65
2024/01/03 04:01:29;;;;;;;2.45;0.95;;;9.80;99.90;;;;;;4870730;29;20441;-64
2024/01/03 04:03:55;;;;;;;2.47;0.63;;;10.00;99.90;;;;;;4868871;29;20037;-63
2024/01/03 04:28:26;;;;;;;5.68;0.82;;;10.60;99.90;;;;;;4869765;29;20057;-64
2024/01/03 04:30:51;;;;;;;3.10;1.08;;;10.60;99.90;;;;;;4876206;29;20104;-64
2024/01/03 04:33:17;;;;;;;7.25;0.80;;;10.70;99.90;;;;;;4886734;29;20481;-64
2024/01/03 04:35:44;;;;;;;1.70;0.65;;;10.80;99.90;;;;;;4873486;29;20363;-64
2024/01/03 04:38:10;;;;;;;3.10;0.52;;;10.80;99.90;;;;;;4872360;29;20529;-64
2024/01/03 04:40:35;;;;;;;2.67;0.88;;;10.70;99.90;;;;;;4886210;29;20065;-65
2024/01/03 04:43:02;;;;;;;1.30;0.43;;;10.60;99.90;;;;;;4872735;29;20541;-64
2024/01/03 04:45:27;;;;;;;2.33;0.57;;;10.60;99.90;;;;;;4877145;29;20029;-70
2024/01/03 04:47:53;;;;;;;2.10;0.45;;;10.60;99.90;;;;;;4877394;29;20033;-71
2024/01/03 04:50:19;;;;;;;4.82;0.22;;;10.60;99.90;;;;;;4873015;29;20051;-64
2024/01/03 04:52:44;;;;;;;6.07;0.65;;;10.60;99.90;;;;;;4874518;29;20031;-64
2024/01/03 04:55:10;;;;;;;4.20;0.57;;;10.60;99.90;;;;;;4889677;29;20145;-64
2024/01/03 04:57:38;;;;;;;2.92;0.98;;;10.60;99.90;;;;;;4866821;29;20041;-63
2024/01/03 05:00:07;;;;;;;2.67;0.68;;;10.50;99.90;;;;;;4874935;29;20085;-63
2024/01/03 05:02:36;;;;;;;3.38;0.45;;;10.40;99.90;;;;;;4888669;29;20025;-64
2024/01/03 05:05:02;;;;;;;1.98;0.50;;;10.40;99.90;;;;;;4854303;29;20562;-63
2024/01/03 05:07:29;;;;;;;8.27;0.47;;;10.40;99.90;;;;;;4867388;29;20036;-64
2024/01/03 05:09:55;;;;;;;5.45;1.25;;;10.30;99.90;;;;;;4874821;29;20029;-64
2024/01/03 05:12:21;;;;;;;0.47;0.38;;;10.30;99.90;;;;;;4872731;29;20027;-65
2024/01/03 05:14:47;;;;;;;10.27;0.70;;;10.40;99.90;;;;;;4869613;29;20038;-64
2024/01/03 05:17:12;;;;;;;5.50;0.90;;;10.40;99.90;;;;;;4870133;29;20025;-65
2024/01/03 05:19:39;;;;;;;0.90;0.55;;;10.40;99.90;;;;;;4874133;29;20081;-64
2024/01/03 05:22:04;;;;;;;3.47;1.10;;;10.50;99.90;;;;;;4868346;29;20040;-64
2024/01/03 05:24:30;;;;;;;3.92;1.20;;;10.50;99.90;;;;;;4871778;29;20033;-63
2024/01/03 05:26:56;;;;;;;5.72;0.98;;;10.40;99.90;;;;;;4886067;29;20020;-62
2024/01/03 05:29:22;;;;;;;7.47;0.85;;;10.50;99.90;;;;;;4871542;29;20386;-61
2024/01/03 05:31:47;;;;;;;5.30;1.13;;;10.50;99.90;;;;;;4869664;29;20030;-65
2024/01/03 05:34:15;;;;;;;18.98;0.68;;;10.50;99.90;;;;;;4871391;29;20383;-62
2024/01/03 05:36:40;;;;;;;4.60;0.88;;;10.50;99.90;;;;;;4871307;29;20381;-62
2024/01/03 05:39:06;;;;;;;8.35;1.38;;;10.60;99.90;;;;;;4870949;29;20116;-62
2024/01/03 05:41:32;;;;;;;1.10;0.40;;;10.70;99.90;;;;;;4874833;29;20042;-63
2024/01/03 05:43:57;;;;;;;8.57;0.68;;;10.80;99.90;;;;;;4871669;29;20037;-62
2024/01/03 05:46:23;;;;;;;1.95;0.52;;;10.80;99.90;;;;;;4877764;29;20037;-63
2024/01/03 05:48:49;;;;;;;2.75;0.98;;;10.90;99.90;;;;;;4878338;29;20596;-67
2024/01/03 05:51:18;;;;;;;5.47;0.90;;;11.00;99.90;;;;;;4876347;29;20107;-69
2024/01/03 05:53:47;;;;;;;9.23;1.20;;;11.00;99.90;;;;;;4877962;29;20454;-63
2024/01/03 05:56:14;;;;;;;4.03;0.68;;;11.00;99.90;;;;;;4870026;29;20072;-63
2024/01/03 05:58:42;;;;;;;7.82;0.57;;;10.90;99.90;;;;;;4877239;29;20037;-66
2024/01/03 06:01:08;;;;;;;1.65;0.40;;;10.90;99.90;;;;;;4877021;29;20041;-66
2024/01/03 06:03:34;;;;;;;3.15;0.38;;;10.90;99.90;;;;;;4878657;29;20036;-65
2024/01/03 06:32:11;;;;;;;2.58;0.38;;;10.70;99.90;;;;;;4874991;29;20079;-64
2024/01/03 06:34:37;;;;;;;5.03;0.50;;;10.70;99.90;;;;;;4877551;29;20506;-64
2024/01/03 06:37:03;;;;;;;5.68;1.10;;;10.70;99.90;;;;;;4875805;29;20037;-65
2024/01/03 06:39:29;;;;;;;0.50;0.35;;;10.60;99.90;;;;;;4871193;29;20362;-64
2024/01/03 07:04:25;;;;;;;2.88;0.50;;;10.80;99.90;;;;;;4860382;29;20479;-65
2024/01/03 07:46:18;;;;;;;4.30;0.50;;;10.50;99.90;;;;;;4856802;29;20038;-65
2024/01/03 07:48:44;;;;;;;0.10;0.10;;;10.50;99.90;;;;;;4862410;29;20378;-65
2024/01/03 07:51:11;;;;;;;0.28;0.28;;;10.50;99.90;;;;;;4859101;29;20041;-66
2024/01/03 07:53:37;;;;;;;1.98;0.30;;;10.50;99.90;;;;;;4845355;29;20025;-64
2024/01/03 07:56:06;;;;;;;3.97;1.38;;;10.50;99.90;;;;;;4858408;29;20138;-65
2024/01/03 07:58:32;;;;;;;1.38;0.32;;;10.40;99.90;;;;;;4857015;29;20648;-64
2024/01/03 08:00:58;;;;;;;2.95;0.68;;;10.40;99.90;;;;;;4860305;29;20033;-64
2024/01/03 08:03:23;;;;;;;1.27;0.50;;;10.40;99.90;;;;;;4858470;29;20069;-64
2024/01/03 08:05:49;;;;;;;6.78;1.38;;;10.40;99.90;;;;;;4860964;29;20113;-64
2024/01/03 08:08:15;;;;;;;6.85;1.25;;;10.50;99.90;;;;;;4858955;29;20069;-64
2024/01/03 08:10:40;;;;;;;0.47;0.22;;;10.40;99.90;;;;;;4859770;29;20041;-64
2024/01/03 08:13:06;;;;;;;6.25;0.40;;;10.30;99.90;;;;;;4858735;29;20060;-64
2024/01/03 08:15:37;;;;;;;2.15;0.43;;;10.30;99.90;;;;;;4869154;29;20057;-64
2024/01/03 08:39:49;;;;;;;2.80;0.30;;;10.70;99.90;;;;;;4858132;29;20037;-65
2024/01/03 08:42:15;;;;;;;2.20;0.35;;;10.60;99.90;;;;;;4859977;29;20092;-65
2024/01/03 08:44:41;;;;;;;0.40;0.25;;;10.50;99.90;;;;;;4857531;29;20120;-65
2024/01/03 08:47:07;;;;;;;1.45;0.28;;;10.40;99.90;;;;;;4860107;29;20062;-64
2024/01/03 08:49:33;;;;;;;1.17;0.17;;;10.30;99.90;;;;;;4856791;29;20037;-64
2024/01/03 08:51:59;;;;;;;0.28;0.20;;;10.30;99.90;;;;;;4858457;29;20056;-65
2024/01/03 08:54:25;;;;;;;0.90;0.10;;;10.20;99.90;;;;;;4857809;29;20062;-65
2024/01/03 08:56:51;;;;;;;8.93;1.98;;;10.10;99.90;;;;;;4859842;29;20113;-64
2024/01/03 10:09:23;;;;;;;1.38;0.32;;;10.10;99.90;;;;;;4855497;29;20049;-63
2024/01/03 10:11:52;;;;;;;0.13;0.10;;;10.10;99.90;;;;;;4855197;29;20069;-64
2024/01/03 10:14:21;;;;;;;0.10;0.10;;;10.20;99.90;;;;;;4855277;29;20034;-64
2024/01/03 10:16:47;;;;;;;0.20;0.10;;;10.10;99.90;;;;;;4857946;29;20030;-66
2024/01/03 10:19:15;;;;;;;0.00;0.00;;;10.10;99.90;;;;;;4854502;29;20033;-63
2024/01/03 10:21:54;;;;;;;0.30;0.10;;;10.10;99.90;;;;;;4858854;29;20056;-62
2024/01/03 10:24:23;;;;;;;0.65;0.22;;;10.40;99.90;;;;;;4855693;29;20045;-62
2024/01/03 10:26:51;;;;;;;0.65;0.17;;;12.20;99.90;;;;;;4857998;29;20032;-62
2024/01/03 10:29:19;;;;;;;0.38;0.20;;;13.40;99.90;;;;;;4856941;29;20071;-64
2024/01/03 10:31:46;;;;;;;0.00;0.00;;;14.40;99.90;;;;;;4858543;29;20081;-63
2024/01/03 10:34:23;;;;;;;0.10;0.10;;;14.80;99.90;;;;;;4856126;29;20061;-63
2024/01/03 10:36:50;;;;;;;0.32;0.10;;;15.20;99.90;;;;;;4857338;29;20021;-62
2024/01/03 10:39:18;;;;;;;1.08;0.20;;;14.10;99.90;;;;;;4854810;29;20390;-63
2024/01/03 10:41:47;;;;;;;0.22;0.13;;;15.20;99.90;;;;;;4857376;29;20120;-62
2024/01/03 10:44:16;;;;;;;1.55;0.20;;;14.30;99.90;;;;;;4856264;29;20038;-62
2024/01/03 10:46:54;;;;;;;3.00;0.25;;;14.60;99.90;;;;;;4858610;29;20045;-62
2024/01/03 10:49:19;;;;;;;0.35;0.13;;;13.80;99.90;;;;;;4856060;29;20041;-63
2024/01/03 11:17:50;;;;;;;0.73;0.15;;;12.00;99.90;;;;;;4861123;29;20529;-63
2024/01/03 11:20:29;;;;;;;1.08;0.35;;;12.60;99.90;;;;;;4860061;29;20174;-62
2024/01/03 11:22:56;;;;;;;5.78;0.75;;;12.20;99.90;;;;;;4874148;29;20059;-63
2024/01/03 12:02:22;;;;;;;0.00;0.00;;;10.80;99.90;;;;;;4860973;29;20394;-63
2024/01/03 12:04:48;;;;;;;0.55;0.30;;;10.90;99.90;;;;;;4859011;29;20030;-63
2024/01/03 12:07:14;;;;;;;0.03;0.03;;;11.20;99.90;;;;;;4861161;29;20030;-63
2024/01/03 12:09:40;;;;;;;0.25;0.22;;;11.50;99.90;;;;;;4858274;29;20038;-63
2024/01/03 12:12:06;;;;;;;0.40;0.17;;;12.00;99.90;;;;;;4859507;29;20033;-63
2024/01/03 12:14:32;;;;;;;0.20;0.13;;;11.90;99.90;;;;;;4857532;29;20037;-63
2024/01/03 12:16:58;;;;;;;1.42;0.30;;;11.60;99.90;;;;;;4860994;29;20500;-63
2024/01/03 12:19:31;;;;;;;0.52;0.20;;;11.50;99.90;;;;;;4859127;29;20041;-64
2024/01/03 12:22:02;;;;;;;1.10;0.55;;;12.30;99.90;;;;;;4859798;29;20040;-62
2024/01/03 12:24:43;;;;;;;4.90;0.35;;;12.70;99.90;;;;;;4858188;29;20569;-62
2024/01/03 12:27:10;;;;;;;0.20;0.10;;;12.50;99.90;;;;;;4861310;29;20128;-62
2024/01/03 12:29:39;;;;;;;1.10;0.30;;;12.00;99.90;;;;;;4859068;29;20056;-61
2024/01/03 12:32:19;;;;;;;4.97;0.90;;;12.00;99.90;;;;;;4860813;29;20505;-62
2024/01/03 12:34:47;;;;;;;6.93;0.63;;;12.00;99.90;;;;;;4857491;29;20090;-62
2024/01/03 12:37:16;;;;;;;5.95;0.30;;;11.80;99.90;;;;;;4859746;29;20089;-62
2024/01/03 12:39:42;;;;;;;1.10;0.25;;;11.70;99.90;;;;;;4858358;29;20037;-62
2024/01/03 12:42:10;;;;;;;0.10;0.10;;;11.70;99.90;;;;;;4859300;29;20081;-62
2024/01/03 12:44:38;;;;;;;1.65;0.30;;;11.50;99.90;;;;;;4858352;29;20061;-62
2024/01/03 12:47:08;;;;;;;0.28;0.15;;;11.50;99.90;;;;;;4859615;29;20494;-62
2024/01/03 12:49:34;;;;;;;1.45;0.30;;;11.40;99.90;;;;;;4861122;29;20071;-62
2024/01/03 12:52:01;;;;;;;0.30;0.30;;;11.40;99.90;;;;;;4860284;29;20038;-62
2024/01/03 12:54:28;;;;;;;2.60;0.30;;;11.30;99.90;;;;;;4858499;29;20128;-62
2024/01/03 12:56:54;;;;;;;0.93;0.47;;;11.30;99.90;;;;;;4860683;29;20061;-62
2024/01/03 12:59:20;;;;;;;0.30;0.25;;;11.20;99.90;;;;;;4855483;29;20029;-62
2024/01/03 13:01:46;;;;;;;2.00;0.50;;;11.10;99.90;;;;;;4860020;29;20037;-63
2024/01/03 13:04:13;;;;;;;3.35;0.40;;;11.10;99.90;;;;;;4857980;29;20038;-62
2024/01/03 13:06:43;;;;;;;2.78;0.73;;;10.80;99.90;;;;;;4860563;29;20034;-62
2024/01/03 13:09:09;;;;;;;0.47;0.22;;;10.70;99.90;;;;;;4857330;29;20162;-62
2024/01/03 13:11:35;;;;;;;3.05;0.95;;;10.60;99.90;;;;;;4859341;29;20119;-63
2024/01/03 13:14:02;;;;;;;4.07;1.17;;;10.50;99.90;;;;;;4857622;29;20530;-63
2024/01/03 13:16:29;;;;;;;0.95;0.25;;;10.30;99.90;;;;;;4862661;29;20033;-63
2024/01/03 13:18:54;;;;;;;2.15;1.20;;;10.30;99.90;;;;;;4857418;29;20058;-63
2024/01/03 13:21:23;;;;;;;2.80;0.50;;;10.30;99.90;;;;;;4859827;29;20117;-63
2024/01/03 13:23:49;;;;;;;1.88;0.60;;;10.40;99.90;;;;;;4857689;29;20040;-65
2024/01/03 13:26:15;;;;;;;6.80;0.60;;;10.30;99.90;;;;;;4860040;29;20041;-63
2024/01/03 13:28:41;;;;;;;2.30;0.40;;;10.30;99.90;;;;;;4857816;29;20065;-62
2024/01/03 13:31:14;;;;;;;2.35;0.98;;;10.40;99.90;;;;;;4859504;29;20066;-62
2024/01/03 13:33:40;;;;;;;2.95;0.30;;;10.40;99.90;;;;;;4857164;29;20116;-62
2024/01/03 13:36:07;;;;;;;0.95;0.38;;;10.50;99.90;;;;;;4858367;29;20074;-63
2024/01/03 13:38:33;;;;;;;2.15;0.28;;;10.70;99.90;;;;;;4856380;29;20076;-63
2024/01/03 13:40:58;;;;;;;1.17;0.10;;;10.70;99.90;;;;;;4859322;29;20029;-64
2024/01/03 13:43:25;;;;;;;0.77;0.45;;;10.90;99.90;;;;;;4857104;29;20052;-62
2024/01/03 13:45:51;;;;;;;1.65;0.40;;;10.90;99.90;;;;;;4859624;29;20052;-62
2024/01/03 13:48:17;;;;;;;3.80;0.40;;;11.00;99.90;;;;;;4856996;29;20390;-62
2024/01/03 13:50:42;;;;;;;7.57;0.90;;;11.10;99.90;;;;;;4859468;29;20041;-62
2024/01/03 13:53:08;;;;;;;0.93;0.25;;;11.10;99.90;;;;;;4856871;29;20462;-62
2024/01/03 13:55:34;;;;;;;0.50;0.15;;;11.20;99.90;;;;;;4885827;24;20080;-61
2024/01/03 13:58:00;;;;;;;4.68;0.57;;;11.20;99.90;;;;;;4858567;29;20057;-61
2024/01/03 14:00:26;;;;;;;3.80;0.30;;;11.20;99.90;;;;;;4875759;29;20461;-60
2024/01/03 14:02:54;;;;;;;1.27;0.55;;;11.30;99.90;;;;;;4866163;29;20033;-60
2024/01/03 14:05:22;;;;;;;1.38;0.40;;;11.40;99.90;;;;;;4867761;29;20029;-61
2024/01/03 14:07:48;;;;;;;3.92;0.40;;;11.40;99.90;;;;;;4874789;29;20037;-59
2024/01/03 14:10:14;;;;;;;6.35;0.73;;;11.50;99.90;;;;;;4866123;29;20485;-61
2024/01/03 14:12:40;;;;;;;1.25;0.52;;;11.50;99.90;;;;;;4875670;29;20434;-62
2024/01/03 14:15:11;;;;;;;6.57;0.50;;;11.50;99.90;;;;;;4860662;29;20462;-62
2024/01/03 14:17:38;;;;;;;;;;;11.60;99.90;;;;;;4868165;29;20090;-62
2024/01/03 14:20:06;;;;;;;4.78;0.47;;;11.60;99.90;;;;;;4864303;29;19916;-62
2024/01/03 14:22:33;;;;;;;6.20;0.68;;;11.80;99.90;;;;;;4869068;29;20033;-62
2024/01/03 14:24:58;;;;;;;2.55;0.50;;;11.70;99.90;;;;;;4873648;29;20053;-62
2024/01/03 14:27:24;;;;;;;0.17;0.15;;;11.60;99.90;;;;;;4872962;29;20085;-63
2024/01/03 14:29:50;;;;;;;1.95;0.43;;;11.70;99.90;;;;;;4863204;29;20029;-64
2024/01/03 14:32:16;;;;;;;4.95;0.50;;;11.80;99.90;;;;;;4864763;29;20033;-62
2024/01/03 14:42:06;;;;;;;5.00;1.03;;;11.80;99.90;;;;;;4864616;29;20558;-62
2024/01/03 14:55:34;;;;;;;1.05;0.47;;;11.90;99.90;;;;;;4861630;29;20077;-62
2024/01/03 14:58:00;;;;;;;2.13;0.50;;;11.80;99.90;;;;;;4874456;29;20021;-62
2024/01/03 15:00:26;;;;;;;4.30;1.30;;;11.80;99.90;;;;;;4888157;29;20037;-61
2024/01/03 15:02:54;;;;;;;0.70;0.35;;;11.80;99.90;;;;;;4882998;29;20037;-62
2024/01/03 15:05:19;;;;;;;4.95;0.40;;;11.80;99.90;;;;;;4877264;29;20081;-62
2024/01/03 15:07:45;;;;;;;3.20;0.28;;;11.80;99.90;;;;;;4864940;29;20022;-62
2024/01/03 15:23:10;;;;;;;1.42;0.45;;;11.60;99.90;;;;;;4865305;29;20124;-61
2024/01/03 15:25:39;;;;;;;0.40;0.20;;;11.60;99.90;;;;;;4864982;29;20613;-61
2024/01/03 15:28:05;;;;;;;0.20;0.10;;;11.60;99.90;;;;;;4878558;29;20405;-61
2024/01/03 15:30:31;;;;;;;2.28;0.22;;;11.50;99.90;;;;;;4873925;29;20032;-61
2024/01/03 15:32:59;;;;;;;2.78;0.43;;;11.50;99.90;;;;;;4881643;29;20481;-61
2024/01/03 15:35:26;;;;;;;3.45;0.43;;;11.50;99.90;;;;;;4871035;29;20426;-62
2024/01/03 15:37:52;;;;;;;2.35;0.65;;;11.40;99.90;;;;;;4879961;29;20029;-61
2024/01/03 15:40:25;;;;;;;3.58;0.30;;;11.40;99.90;;;;;;4867768;29;20029;-59
2024/01/03 15:42:51;;;;;;;0.93;0.30;;;11.40;99.90;;;;;;4870435;29;20101;-62
2024/01/03 15:45:17;;;;;;;0.90;0.20;;;11.30;99.90;;;;;;4871570;29;20048;-62
2024/01/03 15:47:43;;;;;;;5.53;1.33;;;11.20;99.90;;;;;;4862764;29;20394;-62
2024/01/03 15:50:11;;;;;;;0.73;0.38;;;11.20;99.90;;;;;;4860673;29;20101;-61
2024/01/03 15:52:37;;;;;;;4.03;0.80;;;11.20;99.90;;;;;;4875121;29;20025;-61
2024/01/03 15:55:04;;;;;;;1.95;0.22;;;11.10;99.90;;;;;;4860767;29;20025;-62
2024/01/03 15:57:30;;;;;;;4.97;0.57;;;11.20;99.90;;;;;;4861106;29;20022;-62
2024/01/03 15:59:56;;;;;;;1.98;0.65;;;11.20;99.90;;;;;;4866292;29;20053;-61
2024/01/03 16:02:22;;;;;;;3.35;0.80;;;11.10;99.90;;;;;;4860300;29;20044;-62
2024/01/03 16:04:47;;;;;;;3.00;0.75;;;11.10;99.90;;;;;;4860300;29;20045;-62
2024/01/03 16:17:10;;;;;;;1.77;0.30;;;11.10;99.90;;;;;;5121004;23;20049;-60
2024/01/03 16:19:36;;;;;;;2.70;1.02;;;11.10;99.90;;;;;;4846266;29;20462;-60
2024/01/03 16:22:02;;;;;;;2.60;0.50;;;11.20;99.90;;;;;;4852472;29;20041;-60
2024/01/03 16:24:27;;;;;;;0.90;0.30;;;11.10;99.90;;;;;;4842205;29;20042;-60
2024/01/03 16:26:55;;;;;;;1.73;0.90;;;11.20;99.90;;;;;;4838661;29;20038;-61
2024/01/03 16:29:23;;;;;;;3.22;1.02;;;11.20;99.90;;;;;;4841396;29;20030;-60
2024/01/03 16:31:56;;;;;;;2.10;0.40;;;11.20;99.90;;;;;;4837595;29;20974;-59
2024/01/03 16:34:27;;;;;;;0.10;0.10;;;11.20;99.90;;;;;;4841426;29;20038;-62
2024/01/03 16:36:57;;;;;;;0.17;0.17;;;11.30;99.90;;;;;;4838804;29;20406;-65
2024/01/03 16:39:25;;;;;;;0.30;0.20;;;11.30;99.90;;;;;;4844093;29;20034;-59
2024/01/03 16:41:51;;;;;;;2.83;0.47;;;11.30;99.90;;;;;;4839139;29;20082;-59
2024/01/03 16:44:17;;;;;;;1.17;0.47;;;11.40;99.90;;;;;;4841759;29;20046;-60
2024/01/03 16:46:44;;;;;;;0.57;0.30;;;11.40;99.90;;;;;;4838399;29;20615;-59
2024/01/03 16:49:11;;;;;;;2.67;0.65;;;11.40;99.90;;;;;;4838955;29;20143;-59
2024/01/03 16:51:40;;;;;;;1.10;0.40;;;11.30;99.90;;;;;;4839396;29;20110;-58
2024/01/03 16:54:07;;;;;;;1.45;0.40;;;11.40;99.90;;;;;;4839083;29;20069;-59
2024/01/03 16:56:33;;;;;;;0.93;0.43;;;11.40;99.90;;;;;;4834412;29;20038;-59
2024/01/03 16:58:59;;;;;;;2.85;0.52;;;11.40;99.90;;;;;;4841762;29;20541;-65
2024/01/03 17:01:29;;;;;;;1.75;0.30;;;11.40;99.90;;;;;;4853794;29;20053;-63
2024/01/03 17:03:58;;;;;;;0.40;0.17;;;11.50;99.90;;;;;;4839975;29;20037;-61
2024/01/03 17:06:24;;;;;;;0.28;0.22;;;11.40;99.90;;;;;;4853828;29;20524;-61
2024/01/03 17:08:57;;;;;;;0.10;0.10;;;11.30;99.90;;;;;;4842635;29;20034;-61
2024/01/03 17:11:25;;;;;;;2.80;0.65;;;11.20;99.90;;;;;;4840268;29;20125;-61
2024/01/03 17:13:52;;;;;;;0.00;0.00;;;11.00;99.90;;;;;;4843051;29;20518;-61
2024/01/03 17:16:18;;;;;;;0.63;0.20;;;10.80;99.90;;;;;;4838926;29;20471;-61
2024/01/03 17:18:54;;;;;;;9.60;1.00;;;10.70;99.90;;;;;;4852150;29;20065;-60
2024/01/03 17:21:21;;;;;;;1.63;0.60;;;10.60;99.90;;;;;;4842076;29;20046;-61
2024/01/03 17:23:47;;;;;;;0.70;0.22;;;10.60;99.90;;;;;;4853501;29;20502;-62
2024/01/03 17:26:18;;;;;;;3.95;0.85;;;10.50;99.90;;;;;;4840074;29;20050;-66
2024/01/03 17:28:45;;;;;;;2.90;0.52;;;10.50;99.90;;;;;;4839403;29;20120;-61
2024/01/03 17:31:11;;;;;;;4.32;1.20;;;10.50;99.90;;;;;;4855397;29;20475;-60
2024/01/03 17:33:37;;;;;;;1.30;0.20;;;10.50;99.90;;;;;;4835916;29;20037;-60
2024/01/03 17:36:08;;;;;;;0.93;0.35;;;10.40;99.90;;;;;;4840134;29;20041;-60
2024/01/03 17:38:34;;;;;;;5.68;0.95;;;10.30;99.90;;;;;;4836717;29;20022;-61
2024/01/03 17:41:06;;;;;;;1.38;0.55;;;10.40;99.90;;;;;;4840450;29;20394;-59
2024/01/03 17:43:38;;;;;;;5.10;0.55;;;10.30;99.90;;;;;;4838609;29;20026;-60
2024/01/03 17:46:07;;;;;;;0.22;0.17;;;10.30;99.90;;;;;;4854348;29;20430;-60
2024/01/03 17:48:34;;;;;;;1.55;0.40;;;10.30;99.90;;;;;;4837136;29;20042;-61
2024/01/03 17:51:00;;;;;;;0.30;0.20;;;10.30;99.90;;;;;;4854601;29;20038;-60
2024/01/03 17:53:26;;;;;;;0.80;0.10;;;10.30;99.90;;;;;;4844664;29;20042;-60
2024/01/03 17:55:52;;;;;;;2.17;0.35;;;10.40;99.90;;;;;;4840170;29;20030;-67
2024/01/03 17:58:18;;;;;;;0.28;0.05;;;10.40;99.90;;;;;;4844755;29;20026;-62
2024/01/03 18:00:45;;;;;;;3.85;0.52;;;10.40;99.90;;;;;;4841839;29;20391;-62
2024/01/03 18:03:12;;;;;;;2.70;0.52;;;10.40;99.90;;;;;;4836404;29;20042;-62
2024/01/03 18:05:42;;;;;;;0.88;0.20;;;10.40;99.90;;;;;;4831521;29;20052;-62
2024/01/03 18:15:32;;;;;;;0.20;0.10;;;10.20;99.90;;;;;;4835447;29;20038;-62
2024/01/03 18:17:59;;;;;;;2.08;0.55;;;10.20;99.90;;;;;;4836939;29;20116;-63
2024/01/03 18:20:25;;;;;;;5.47;0.38;;;10.30;99.90;;;;;;4840156;29;20034;-63
2024/01/03 18:22:51;;;;;;;0.70;0.10;;;10.20;99.90;;;;;;4839205;29;20040;-64
2024/01/03 18:25:23;;;;;;;1.80;0.15;;;10.30;99.90;;;;;;4849365;29;20141;-62
2024/01/03 18:27:52;;;;;;;0.38;0.22;;;10.20;99.90;;;;;;4837927;29;20026;-63
2024/01/03 18:30:18;;;;;;;0.85;0.15;;;10.20;99.90;;;;;;4839929;29;20639;-62
2024/01/03 18:32:44;;;;;;;0.10;0.10;;;10.10;99.90;;;;;;4836933;29;20022;-62
2024/01/03 18:35:10;;;;;;;0.03;0.03;;;10.00;99.90;;;;;;4838949;29;20038;-63
2024/01/03 18:37:36;;;;;;;0.40;0.20;;;9.90;99.90;;;;;;4837003;29;20038;-62
2024/01/03 18:40:09;;;;;;;1.75;0.22;;;9.90;99.90;;;;;;4840228;29;20038;-62
2024/01/03 18:42:36;;;;;;;0.20;0.10;;;9.90;99.90;;;;;;4832271;29;20050;-63
2024/01/03 18:45:02;;;;;;;0.20;0.20;;;9.90;99.90;;;;;;4838952;29;20112;-62
2024/01/03 18:47:30;;;;;;;0.10;0.10;;;9.90;99.90;;;;;;4836064;29;20030;-64
2024/01/03 18:49:57;;;;;;;0.08;0.08;;;10.00;99.90;;;;;;4842752;29;20042;-64
2024/01/03 19:10:47;;;;;;;2.63;0.30;;;10.20;99.90;;;;;;4848545;29;20089;-67
2024/01/03 19:13:13;;;;;;;0.08;0.08;;;10.30;99.90;;;;;;4859276;29;20460;-67
2024/01/03 19:15:38;;;;;;;0.75;0.57;;;10.30;99.90;;;;;;4859917;29;20032;-68
2024/01/03 19:18:04;;;;;;;1.02;0.10;;;10.30;99.90;;;;;;4858044;29;20047;-68
2024/01/03 19:20:30;;;;;;;1.17;0.20;;;10.30;99.90;;;;;;4855599;29;20061;-67
2024/01/03 19:22:56;;;;;;;0.57;0.30;;;10.30;99.90;;;;;;4872141;29;20474;-67
2024/01/03 19:25:22;;;;;;;0.57;0.20;;;10.20;99.90;;;;;;4871699;29;20041;-67
2024/01/03 19:27:47;;;;;;;4.03;0.40;;;10.30;99.90;;;;;;4854754;29;20036;-67
2024/01/03 19:30:14;;;;;;;0.30;0.20;;;10.40;99.90;;;;;;4860647;29;20100;-67
2024/01/03 19:32:40;;;;;;;1.13;0.25;;;10.30;99.90;;;;;;4871020;29;20033;-67